Time;durP1;ratioP1;P1;durP2;ratioP2;P2;SDS_P1;SDS_P2;PMS_P1;PMS_P2;Temp;Humidity;BMP_temperature;BMP_pressure;BME280_temperature;BME280_humidity;BME280_pressure;Samples;Min_cycle;Max_cycle;Signal;HPM_P1;HPM_P2
2022/12/29 00:01:55;;;;;;;1.93;1.30;;;9.80;99.90;;;;;;7392731;19;20137;-76
2022/12/29 00:04:22;;;;;;;2.47;1.20;;;9.90;99.90;;;;;;7389406;19;20146;-76
2022/12/29 00:06:48;;;;;;;2.40;1.27;;;9.90;99.90;;;;;;7392132;19;20122;-76
2022/12/29 00:09:16;;;;;;;6.47;1.63;;;9.90;99.90;;;;;;7388496;19;20669;-76
2022/12/29 00:11:42;;;;;;;2.17;1.20;;;9.90;99.90;;;;;;7390117;19;20615;-76
2022/12/29 00:16:53;;;;;;;3.72;1.30;;;9.90;99.90;;;;;;7389423;19;20158;-76
2022/12/29 00:36:11;;;;;;;1.60;1.20;;;10.10;99.90;;;;;;7389971;19;20142;-76
2022/12/29 00:44:10;;;;;;;2.13;1.30;;;10.20;99.90;;;;;;7387981;19;20209;-75
2022/12/29 00:46:43;;;;;;;2.83;1.50;;;10.20;99.90;;;;;;7388210;19;20154;-75
2022/12/29 00:51:58;;;;;;;1.53;1.17;;;10.30;99.90;;;;;;7396161;19;20131;-77
2022/12/29 00:54:24;;;;;;;2.60;1.50;;;10.30;99.90;;;;;;7394238;19;20184;-76
2022/12/29 00:56:51;;;;;;;2.37;1.17;;;10.30;99.90;;;;;;7395605;19;20658;-75
2022/12/29 00:59:18;;;;;;;1.30;1.20;;;10.30;99.90;;;;;;7395083;19;20606;-76
2022/12/29 01:01:44;;;;;;;1.73;1.10;;;10.40;99.90;;;;;;7396412;19;20843;-76
2022/12/29 01:04:11;;;;;;;3.80;1.47;;;10.30;99.90;;;;;;7393397;19;20192;-77
2022/12/29 01:06:38;;;;;;;1.20;1.10;;;10.40;99.90;;;;;;7394864;19;20131;-76
2022/12/29 01:11:48;;;;;;;2.30;1.20;;;10.40;99.90;;;;;;7397391;19;20618;-76
2022/12/29 01:14:14;;;;;;;1.63;1.27;;;10.40;99.90;;;;;;7395083;19;20999;-77
2022/12/29 01:16:40;;;;;;;3.00;1.10;;;10.50;99.90;;;;;;7395461;19;20555;-76
2022/12/29 01:19:06;;;;;;;1.80;1.10;;;10.50;99.90;;;;;;7395910;19;20135;-74
2022/12/29 01:21:32;;;;;;;1.77;1.10;;;10.50;99.90;;;;;;7394968;19;20203;-76
2022/12/29 01:23:58;;;;;;;1.87;0.90;;;10.60;99.90;;;;;;7393754;19;20134;-75
2022/12/29 01:26:24;;;;;;;1.23;1.10;;;10.60;99.90;;;;;;7397173;19;20131;-76
2022/12/29 01:28:50;;;;;;;1.13;1.00;;;10.60;99.90;;;;;;7395959;19;20135;-76
2022/12/29 01:31:16;;;;;;;1.67;0.90;;;10.60;99.90;;;;;;7386441;19;20528;-75
2022/12/29 01:33:43;;;;;;;1.93;1.00;;;10.70;99.90;;;;;;7388737;19;20135;-75
2022/12/29 01:36:13;;;;;;;1.90;0.93;;;10.70;99.90;;;;;;7394631;19;20154;-76
2022/12/29 01:38:39;;;;;;;1.27;0.90;;;10.80;99.90;;;;;;7395111;19;20130;-76
2022/12/29 01:41:07;;;;;;;1.60;0.93;;;10.90;99.90;;;;;;7393759;19;20154;-76
2022/12/29 01:43:50;;;;;;;2.10;1.05;;;10.90;99.90;;;;;;7393708;19;20145;-76
2022/12/29 01:46:23;;;;;;;2.37;0.90;;;10.90;99.90;;;;;;7394145;19;20173;-76
2022/12/29 01:48:53;;;;;;;1.43;0.80;;;10.90;99.90;;;;;;7390260;19;20194;-74
2022/12/29 01:51:22;;;;;;;1.60;0.97;;;10.90;99.90;;;;;;7395098;19;20146;-75
2022/12/29 01:53:48;;;;;;;2.03;1.00;;;10.90;99.90;;;;;;7391011;19;20156;-76
2022/12/29 01:56:19;;;;;;;1.95;0.90;;;10.90;99.90;;;;;;7394706;19;20134;-77
2022/12/29 01:58:48;;;;;;;1.17;0.73;;;10.90;99.90;;;;;;7391194;19;20134;-76
2022/12/29 02:01:16;;;;;;;1.43;1.10;;;10.90;99.90;;;;;;7391363;19;20167;-77
2022/12/29 02:03:42;;;;;;;1.45;0.75;;;10.90;99.90;;;;;;7392023;19;20201;-75
2022/12/29 02:06:23;;;;;;;2.22;0.93;;;10.90;99.90;;;;;;7393611;19;20134;-76
2022/12/29 02:08:52;;;;;;;1.15;0.77;;;10.80;99.90;;;;;;7393738;19;20136;-76
2022/12/29 02:11:19;;;;;;;1.37;0.93;;;10.80;99.90;;;;;;7393424;19;20161;-76
2022/12/29 02:13:45;;;;;;;0.60;0.60;;;10.80;99.90;;;;;;7395861;19;20157;-76
2022/12/29 02:16:19;;;;;;;1.93;0.77;;;10.80;99.90;;;;;;7394201;19;20143;-76
2022/12/29 02:19:06;;;;;;;1.83;1.00;;;10.80;99.90;;;;;;7391804;19;20145;-75
2022/12/29 02:21:53;;;;;;;3.77;1.10;;;10.90;99.90;;;;;;7394368;19;20186;-77
2022/12/29 02:24:36;;;;;;;1.30;1.20;;;10.90;99.90;;;;;;7392113;19;20914;-76
2022/12/29 02:27:29;;;;;;;2.87;0.90;;;10.90;99.90;;;;;;7392603;19;20880;-76
2022/12/29 02:30:29;;;;;;;2.07;0.93;;;10.90;99.90;;;;;;7391635;19;20600;-76
2022/12/29 02:33:02;;;;;;;1.50;1.30;;;10.80;99.90;;;;;;7390967;19;20423;-76
2022/12/29 02:36:07;;;;;;;2.30;0.80;;;10.80;99.90;;;;;;7394761;19;20206;-76
2022/12/29 02:38:55;;;;;;;1.37;0.90;;;10.90;99.90;;;;;;7394841;19;20127;-77
2022/12/29 02:41:34;;;;;;;1.10;0.83;;;10.80;99.90;;;;;;7392020;19;20154;-75
2022/12/29 02:44:22;;;;;;;1.87;1.00;;;10.90;99.90;;;;;;7392446;19;20142;-77
2022/12/29 02:47:07;;;;;;;2.37;1.47;;;10.80;99.90;;;;;;7393010;19;20150;-76
2022/12/29 02:49:57;;;;;;;1.13;0.83;;;10.80;99.90;;;;;;7392633;19;20207;-76
2022/12/29 02:52:27;;;;;;;2.80;1.10;;;10.80;99.90;;;;;;7392775;19;20130;-76
2022/12/29 02:54:54;;;;;;;2.53;1.07;;;10.90;99.90;;;;;;7394206;19;20150;-76
2022/12/29 02:57:20;;;;;;;1.77;0.93;;;10.90;99.90;;;;;;7393435;19;20664;-76
2022/12/29 02:59:48;;;;;;;2.20;1.37;;;10.90;99.90;;;;;;7394690;19;20135;-75
2022/12/29 03:02:50;;;;;;;2.73;0.90;;;11.00;99.90;;;;;;7391336;19;20494;-76
2022/12/29 03:05:41;;;;;;;0.73;0.73;;;11.00;99.90;;;;;;7390496;19;20640;-76
2022/12/29 03:08:33;;;;;;;1.90;0.83;;;11.00;99.90;;;;;;7391312;19;20150;-76
2022/12/29 03:11:03;;;;;;;1.97;0.70;;;11.00;99.90;;;;;;7391757;19;20150;-76
2022/12/29 03:16:48;;;;;;;1.70;0.80;;;11.00;99.90;;;;;;7390388;19;20177;-76
2022/12/29 03:19:21;;;;;;;2.03;1.10;;;11.00;99.90;;;;;;7394430;19;20217;-77
2022/12/29 03:24:51;;;;;;;3.23;1.90;;;11.00;99.90;;;;;;7390698;19;20237;-77
2022/12/29 03:27:21;;;;;;;2.07;1.10;;;10.90;99.90;;;;;;7391595;19;20133;-76
2022/12/29 03:29:53;;;;;;;2.47;1.03;;;11.00;99.90;;;;;;7390459;19;20150;-77
2022/12/29 03:32:23;;;;;;;2.38;1.00;;;11.10;99.90;;;;;;7392154;19;20618;-76
2022/12/29 03:34:50;;;;;;;1.20;0.73;;;11.10;99.90;;;;;;7391182;19;20172;-76
2022/12/29 03:37:26;;;;;;;2.10;0.90;;;11.10;99.90;;;;;;7394199;19;20617;-77
2022/12/29 03:39:51;;;;;;;0.98;0.75;;;11.10;99.90;;;;;;7390649;19;20145;-76
2022/12/29 03:42:25;;;;;;;1.50;1.00;;;11.10;99.90;;;;;;7391394;19;20134;-76
2022/12/29 03:44:55;;;;;;;1.20;0.70;;;11.10;99.90;;;;;;7393165;19;20149;-76
2022/12/29 03:47:21;;;;;;;1.50;0.90;;;11.30;99.90;;;;;;7390068;19;20143;-76
2022/12/29 03:49:47;;;;;;;0.97;0.87;;;11.30;99.90;;;;;;7389011;19;20182;-77
2022/12/29 03:52:12;;;;;;;1.63;1.00;;;11.30;99.90;;;;;;7388985;19;20174;-76
2022/12/29 03:54:38;;;;;;;1.05;0.70;;;11.30;99.90;;;;;;7389470;19;20521;-75
2022/12/29 03:57:07;;;;;;;1.77;0.80;;;11.30;99.90;;;;;;7389790;19;20454;-76
2022/12/29 03:59:32;;;;;;;1.40;0.80;;;11.40;99.90;;;;;;7391024;19;20142;-75
2022/12/29 04:01:59;;;;;;;0.67;0.60;;;11.40;99.90;;;;;;7389270;19;21047;-76
2022/12/29 04:04:25;;;;;;;1.63;0.70;;;11.50;99.90;;;;;;7387577;19;20218;-76
2022/12/29 04:06:50;;;;;;;1.63;0.80;;;11.50;99.90;;;;;;7392531;19;20567;-76
2022/12/29 04:09:16;;;;;;;1.77;0.90;;;11.40;99.90;;;;;;7388869;19;20135;-76
2022/12/29 04:11:42;;;;;;;0.73;0.60;;;11.50;99.90;;;;;;7393247;19;20139;-76
2022/12/29 04:14:08;;;;;;;1.33;0.60;;;11.50;99.90;;;;;;7390419;19;20198;-77
2022/12/29 04:16:35;;;;;;;2.33;0.70;;;11.40;99.90;;;;;;7387153;19;20899;-76
2022/12/29 04:19:02;;;;;;;0.60;0.60;;;11.40;99.90;;;;;;7392066;19;20145;-76
2022/12/29 04:21:28;;;;;;;2.70;0.97;;;11.50;99.90;;;;;;7390365;19;20150;-76
2022/12/29 04:23:53;;;;;;;3.73;0.70;;;11.60;99.90;;;;;;7393286;19;20143;-76
2022/12/29 04:26:19;;;;;;;1.67;0.60;;;11.70;99.90;;;;;;7395554;19;20222;-76
2022/12/29 04:28:45;;;;;;;1.30;0.88;;;11.60;99.90;;;;;;7395924;19;20162;-75
2022/12/29 04:31:10;;;;;;;1.10;0.80;;;11.50;99.90;;;;;;7395926;19;20150;-77
2022/12/29 04:33:36;;;;;;;1.50;0.70;;;11.50;99.90;;;;;;7394396;19;20167;-76
2022/12/29 04:36:03;;;;;;;1.60;0.80;;;11.40;99.90;;;;;;7396850;19;20143;-77
2022/12/29 04:38:28;;;;;;;0.80;0.63;;;11.40;99.90;;;;;;7394422;19;20210;-76
2022/12/29 04:40:54;;;;;;;1.17;0.80;;;11.40;99.90;;;;;;7398054;19;20139;-76
2022/12/29 04:43:21;;;;;;;2.17;0.80;;;11.40;99.90;;;;;;7396668;19;20142;-76
2022/12/29 04:45:47;;;;;;;1.15;0.85;;;11.40;99.90;;;;;;7394394;19;20158;-77
2022/12/29 04:48:13;;;;;;;1.17;0.82;;;11.40;99.90;;;;;;7396856;19;20135;-75
2022/12/29 04:50:40;;;;;;;1.00;0.67;;;11.40;99.90;;;;;;7392179;19;20150;-76
2022/12/29 04:53:07;;;;;;;1.00;0.80;;;11.50;99.90;;;;;;7396195;19;20139;-77
2022/12/29 04:55:33;;;;;;;1.17;0.77;;;11.50;99.90;;;;;;7394161;19;20221;-75
2022/12/29 04:57:59;;;;;;;0.82;0.82;;;11.50;99.90;;;;;;7391153;19;20137;-75
2022/12/29 05:00:25;;;;;;;1.50;0.90;;;11.50;99.90;;;;;;7396760;19;20139;-76
2022/12/29 05:02:51;;;;;;;2.22;0.90;;;11.50;99.90;;;;;;7394652;19;20130;-75
2022/12/29 05:05:17;;;;;;;2.85;0.90;;;11.50;99.90;;;;;;7393392;19;20529;-76
2022/12/29 05:07:43;;;;;;;0.83;0.73;;;11.60;99.90;;;;;;7394459;19;20202;-76
2022/12/29 05:10:09;;;;;;;1.47;0.80;;;11.60;99.90;;;;;;7394696;19;20543;-76
2022/12/29 05:12:37;;;;;;;1.50;0.90;;;11.50;99.90;;;;;;7394938;19;20157;-76
2022/12/29 05:15:03;;;;;;;1.23;1.13;;;11.60;99.90;;;;;;7394882;19;20154;-76
2022/12/29 05:17:29;;;;;;;1.35;1.05;;;11.60;99.90;;;;;;7394472;19;20584;-77
2022/12/29 05:19:55;;;;;;;3.23;0.90;;;11.60;99.90;;;;;;7394500;19;20151;-76
2022/12/29 05:22:21;;;;;;;1.70;0.83;;;11.60;99.90;;;;;;7395124;19;20162;-76
2022/12/29 05:24:47;;;;;;;1.97;1.10;;;11.50;99.90;;;;;;7394148;19;20130;-76
2022/12/29 05:27:13;;;;;;;1.20;0.90;;;11.70;99.90;;;;;;7394796;19;20143;-75
2022/12/29 05:29:39;;;;;;;1.97;1.00;;;11.70;99.90;;;;;;7393979;19;20150;-76
2022/12/29 05:32:04;;;;;;;2.55;0.98;;;11.70;99.90;;;;;;7394665;19;20146;-76
2022/12/29 05:34:30;;;;;;;1.00;0.90;;;11.60;99.90;;;;;;7395137;19;20130;-75
2022/12/29 05:36:56;;;;;;;2.40;0.87;;;11.70;99.90;;;;;;7394889;19;20302;-77
2022/12/29 05:39:21;;;;;;;1.70;1.20;;;11.70;99.90;;;;;;7395472;19;20591;-77
2022/12/29 05:41:47;;;;;;;0.80;0.80;;;11.70;99.90;;;;;;7393664;19;20174;-76
2022/12/29 05:44:13;;;;;;;1.87;1.13;;;11.70;99.90;;;;;;7391217;19;20153;-79
2022/12/29 05:46:39;;;;;;;1.00;0.70;;;11.70;99.90;;;;;;7395847;19;20139;-76
2022/12/29 05:49:05;;;;;;;0.93;0.90;;;11.60;99.90;;;;;;7393561;19;20134;-76
2022/12/29 05:51:31;;;;;;;1.90;0.80;;;11.60;99.90;;;;;;7393275;19;20147;-77
2022/12/29 05:53:57;;;;;;;1.30;1.00;;;11.60;99.90;;;;;;7391804;19;20150;-77
2022/12/29 05:56:23;;;;;;;1.00;0.70;;;11.60;99.90;;;;;;7393773;19;20147;-75
2022/12/29 05:58:48;;;;;;;1.63;0.80;;;11.70;99.90;;;;;;7392243;19;20144;-78
2022/12/29 06:01:14;;;;;;;2.50;0.90;;;11.70;99.90;;;;;;7393820;19;20493;-76
2022/12/29 06:03:40;;;;;;;1.83;1.02;;;11.70;99.90;;;;;;7390830;19;20246;-77
2022/12/29 06:06:06;;;;;;;1.20;1.10;;;11.80;99.90;;;;;;7394826;19;20166;-77
2022/12/29 06:08:31;;;;;;;1.15;0.93;;;11.80;99.90;;;;;;7392148;19;20147;-77
2022/12/29 06:10:57;;;;;;;1.03;0.70;;;11.80;99.90;;;;;;7389543;19;20146;-76
2022/12/29 06:13:23;;;;;;;1.25;1.02;;;11.70;99.90;;;;;;7393097;19;20133;-76
2022/12/29 06:15:49;;;;;;;1.67;0.90;;;11.80;99.90;;;;;;7394250;19;20151;-77
2022/12/29 06:18:15;;;;;;;1.20;1.00;;;11.80;99.90;;;;;;7394098;19;20143;-76
2022/12/29 06:20:41;;;;;;;1.07;0.80;;;11.80;99.90;;;;;;7395161;19;20158;-75
2022/12/29 06:23:06;;;;;;;2.80;0.90;;;11.90;99.90;;;;;;7394088;19;20138;-76
2022/12/29 06:25:33;;;;;;;1.88;1.02;;;11.90;99.90;;;;;;7391167;19;20146;-75
2022/12/29 06:28:00;;;;;;;1.37;0.80;;;11.80;99.90;;;;;;7392315;19;20153;-75
2022/12/29 06:30:26;;;;;;;3.77;1.00;;;11.90;99.90;;;;;;7391018;19;20135;-76
2022/12/29 06:32:51;;;;;;;0.97;0.87;;;11.90;99.90;;;;;;7394821;19;20149;-76
2022/12/29 06:35:18;;;;;;;2.47;0.80;;;11.90;99.90;;;;;;7393710;19;20883;-75
2022/12/29 06:37:43;;;;;;;1.67;0.82;;;11.90;99.90;;;;;;7394569;19;20135;-76
2022/12/29 06:40:11;;;;;;;2.67;1.10;;;11.90;99.90;;;;;;7394623;19;20625;-76
2022/12/29 06:42:37;;;;;;;2.27;0.70;;;12.00;99.90;;;;;;7393242;19;20198;-76
2022/12/29 06:45:03;;;;;;;1.03;0.90;;;11.90;99.90;;;;;;7389464;19;20138;-75
2022/12/29 06:47:29;;;;;;;1.20;0.80;;;11.90;99.90;;;;;;7390911;19;20158;-75
2022/12/29 06:49:55;;;;;;;2.45;0.85;;;11.80;99.90;;;;;;7389688;19;20142;-76
2022/12/29 06:52:21;;;;;;;1.15;0.80;;;11.90;99.90;;;;;;7389404;19;20138;-76
2022/12/29 06:54:46;;;;;;;1.57;0.90;;;11.80;99.90;;;;;;7390798;19;20131;-77
2022/12/29 06:57:13;;;;;;;1.27;0.80;;;11.80;99.90;;;;;;7392314;19;20131;-74
2022/12/29 06:59:39;;;;;;;1.67;1.13;;;11.80;99.90;;;;;;7390829;19;20127;-76
2022/12/29 07:02:05;;;;;;;1.53;0.93;;;11.90;99.90;;;;;;7392594;19;20150;-76
2022/12/29 07:04:31;;;;;;;1.73;1.00;;;11.80;99.90;;;;;;7386518;19;20158;-76
2022/12/29 07:06:57;;;;;;;2.45;1.00;;;11.70;99.90;;;;;;7398455;19;20149;-76
2022/12/29 07:09:22;;;;;;;1.55;0.95;;;11.80;99.90;;;;;;7391085;19;20480;-76
2022/12/29 07:11:48;;;;;;;2.50;0.80;;;11.80;99.90;;;;;;7391717;19;20137;-75
2022/12/29 07:14:14;;;;;;;1.47;0.80;;;11.70;99.90;;;;;;7392374;19;20631;-77
2022/12/29 07:16:40;;;;;;;3.30;0.90;;;11.90;99.90;;;;;;7392760;19;20138;-76
2022/12/29 07:19:05;;;;;;;0.93;0.75;;;11.80;99.90;;;;;;7390435;19;20205;-77
2022/12/29 07:21:31;;;;;;;1.00;0.73;;;11.90;99.90;;;;;;7391566;19;20146;-76
2022/12/29 07:23:57;;;;;;;1.53;1.07;;;11.80;99.90;;;;;;7388082;19;20178;-75
2022/12/29 07:26:22;;;;;;;1.20;0.90;;;11.80;99.90;;;;;;7389178;19;20480;-76
2022/12/29 07:28:48;;;;;;;1.60;0.90;;;11.90;99.90;;;;;;7387872;19;20138;-77
2022/12/29 07:31:17;;;;;;;1.45;0.90;;;11.80;99.90;;;;;;7390070;19;20594;-78
2022/12/29 07:33:43;;;;;;;2.23;0.80;;;11.80;99.90;;;;;;7388500;19;20141;-75
2022/12/29 07:36:10;;;;;;;2.08;1.00;;;11.80;99.90;;;;;;7389896;19;20599;-75
2022/12/29 07:38:36;;;;;;;1.83;1.00;;;11.80;99.90;;;;;;7387888;19;20142;-77
2022/12/29 07:41:01;;;;;;;3.67;1.20;;;11.70;99.90;;;;;;7388838;19;20162;-77
2022/12/29 07:43:27;;;;;;;1.73;0.93;;;11.60;99.90;;;;;;7390300;19;20147;-76
2022/12/29 07:45:53;;;;;;;1.83;1.00;;;11.70;99.90;;;;;;7394485;19;20135;-76
2022/12/29 07:48:19;;;;;;;1.30;1.10;;;11.70;99.90;;;;;;7389759;19;20141;-78
2022/12/29 07:50:45;;;;;;;2.20;1.13;;;11.60;99.90;;;;;;7385216;19;20225;-77
2022/12/29 07:53:10;;;;;;;2.73;0.97;;;11.60;99.90;;;;;;7387457;19;20138;-77
2022/12/29 07:55:36;;;;;;;3.67;1.10;;;11.70;99.90;;;;;;7386299;19;20171;-76
2022/12/29 07:58:02;;;;;;;1.05;0.90;;;11.70;99.90;;;;;;7393703;19;20163;-76
2022/12/29 08:00:28;;;;;;;1.42;0.80;;;11.70;99.90;;;;;;7392740;19;20134;-76
2022/12/29 08:02:54;;;;;;;1.00;0.83;;;11.70;99.90;;;;;;7393129;19;20131;-78
2022/12/29 08:05:19;;;;;;;1.27;0.90;;;11.80;99.90;;;;;;7400600;19;20485;-76
2022/12/29 08:07:46;;;;;;;2.17;0.93;;;11.80;99.90;;;;;;7398960;19;20157;-76
2022/12/29 08:10:12;;;;;;;1.58;0.80;;;11.80;99.90;;;;;;7398412;19;20142;-78
2022/12/29 08:12:39;;;;;;;1.67;1.00;;;11.90;99.90;;;;;;7394719;19;20143;-77
2022/12/29 08:15:06;;;;;;;1.40;0.90;;;11.90;99.90;;;;;;7386635;19;20139;-76
2022/12/29 08:17:32;;;;;;;1.73;1.10;;;11.90;99.90;;;;;;7389380;19;20630;-77
2022/12/29 08:19:58;;;;;;;2.95;1.83;;;12.00;99.90;;;;;;7389891;19;20158;-76
2022/12/29 08:22:24;;;;;;;2.27;1.80;;;12.00;99.90;;;;;;7392704;19;20226;-76
2022/12/29 08:24:50;;;;;;;4.82;1.40;;;12.00;99.90;;;;;;7390181;19;20142;-76
2022/12/29 08:27:15;;;;;;;2.77;1.43;;;11.90;99.90;;;;;;7392027;19;20145;-77
2022/12/29 08:29:41;;;;;;;1.52;1.25;;;11.80;99.90;;;;;;7388877;19;20131;-76
2022/12/29 08:32:07;;;;;;;2.35;1.30;;;11.90;99.90;;;;;;7390364;19;20162;-76
2022/12/29 08:34:33;;;;;;;4.45;1.67;;;11.80;99.90;;;;;;7391881;19;20582;-75
2022/12/29 08:36:59;;;;;;;3.23;1.73;;;11.80;99.90;;;;;;7393042;19;20142;-76
2022/12/29 08:39:25;;;;;;;2.53;1.10;;;11.80;99.90;;;;;;7393839;19;20134;-76
2022/12/29 08:41:50;;;;;;;1.38;0.90;;;11.80;99.90;;;;;;7393214;19;20157;-75
2022/12/29 08:44:16;;;;;;;5.40;3.80;;;11.80;99.90;;;;;;7393010;19;20162;-76
2022/12/29 08:46:43;;;;;;;2.80;1.75;;;11.80;99.90;;;;;;7391097;19;20146;-76
2022/12/29 08:49:09;;;;;;;5.00;3.15;;;11.70;99.90;;;;;;7393938;19;20594;-76
2022/12/29 08:51:36;;;;;;;3.70;1.65;;;11.90;99.90;;;;;;7399193;19;20736;-75
2022/12/29 08:54:02;;;;;;;3.30;1.60;;;12.10;99.90;;;;;;7396556;19;20158;-76
2022/12/29 08:56:28;;;;;;;1.47;1.27;;;12.00;99.90;;;;;;7393136;19;20559;-77
2022/12/29 08:58:54;;;;;;;3.43;1.23;;;12.20;99.90;;;;;;7387784;19;20157;-76
2022/12/29 09:01:20;;;;;;;1.53;0.97;;;12.10;99.90;;;;;;7390344;19;20504;-76
2022/12/29 09:03:47;;;;;;;2.78;1.70;;;12.00;99.90;;;;;;7391027;19;20184;-75
2022/12/29 09:06:14;;;;;;;2.33;1.30;;;11.90;99.90;;;;;;7394567;19;20138;-78
2022/12/29 09:08:40;;;;;;;1.80;1.00;;;11.90;99.90;;;;;;7395587;19;20157;-75
2022/12/29 09:11:18;;;;;;;3.47;1.00;;;12.00;99.90;;;;;;7393671;19;20139;-75
2022/12/29 09:13:44;;;;;;;2.70;1.03;;;12.00;99.90;;;;;;7394338;19;20137;-76
2022/12/29 09:16:10;;;;;;;1.77;0.97;;;12.00;99.90;;;;;;7393548;19;20156;-76
2022/12/29 09:18:36;;;;;;;1.73;1.27;;;12.00;99.90;;;;;;7391879;19;20604;-75
2022/12/29 09:21:04;;;;;;;1.55;1.30;;;12.00;99.90;;;;;;7398311;19;20127;-74
2022/12/29 09:23:31;;;;;;;2.30;1.70;;;12.10;99.90;;;;;;7396425;19;20140;-76
2022/12/29 09:25:57;;;;;;;1.65;1.38;;;12.10;99.90;;;;;;7388613;19;20131;-76
2022/12/29 09:28:23;;;;;;;2.38;1.20;;;12.10;99.90;;;;;;7391632;19;20137;-75
2022/12/29 09:30:48;;;;;;;1.52;1.10;;;12.30;99.90;;;;;;7392655;19;20127;-77
2022/12/29 09:33:15;;;;;;;2.75;1.30;;;12.20;99.90;;;;;;7393166;19;20535;-76
2022/12/29 09:35:45;;;;;;;4.82;1.40;;;12.30;99.90;;;;;;7395009;19;20138;-75
2022/12/29 09:38:11;;;;;;;1.40;0.80;;;12.20;99.90;;;;;;7395553;19;20218;-76
2022/12/29 09:40:39;;;;;;;3.30;1.40;;;12.40;99.90;;;;;;7385229;19;20151;-76
2022/12/29 09:43:26;;;;;;;2.03;1.43;;;12.60;99.90;;;;;;7386915;19;20173;-75
2022/12/29 09:46:23;;;;;;;2.15;1.58;;;12.60;99.90;;;;;;7390072;19;20198;-76
2022/12/29 09:49:13;;;;;;;2.47;1.80;;;12.60;99.90;;;;;;7396146;19;20157;-78
2022/12/29 09:51:42;;;;;;;3.80;1.80;;;12.70;99.90;;;;;;7391841;19;20150;-76
2022/12/29 09:54:39;;;;;;;2.70;1.77;;;12.70;99.90;;;;;;7394324;19;20394;-79
2022/12/29 09:57:14;;;;;;;4.55;1.27;;;12.70;99.90;;;;;;7403978;19;20170;-77
2022/12/29 09:59:45;;;;;;;4.95;1.60;;;13.00;99.90;;;;;;7394813;19;20585;-79
2022/12/29 10:02:28;;;;;;;2.10;1.50;;;13.00;99.90;;;;;;7393458;19;20147;-77
2022/12/29 10:04:55;;;;;;;2.33;1.50;;;13.10;99.90;;;;;;7393298;19;20154;-78
2022/12/29 10:07:59;;;;;;;2.47;1.30;;;13.00;99.90;;;;;;7397028;19;20141;-79
2022/12/29 10:10:35;;;;;;;3.50;1.52;;;13.00;99.90;;;;;;7387780;19;20157;-78
2022/12/29 10:14:02;;;;;;;2.00;1.27;;;13.10;99.90;;;;;;7392851;19;20154;-77
2022/12/29 10:16:50;;;;;;;3.15;1.48;;;13.10;99.90;;;;;;7386143;19;20135;-80
2022/12/29 10:19:45;;;;;;;1.70;1.40;;;13.00;99.90;;;;;;7386969;19;20143;-79
2022/12/29 10:22:29;;;;;;;2.45;1.20;;;13.00;99.90;;;;;;7387954;19;20145;-80
2022/12/29 10:24:57;;;;;;;1.55;1.00;;;13.10;99.90;;;;;;7389639;19;20151;-80
2022/12/29 10:27:24;;;;;;;1.90;1.10;;;13.00;99.90;;;;;;7389606;19;20135;-78
2022/12/29 10:29:55;;;;;;;1.85;1.00;;;13.00;99.90;;;;;;7388979;19;20138;-78
2022/12/29 10:32:49;;;;;;;2.15;1.20;;;13.10;99.90;;;;;;7395478;19;20204;-80
2022/12/29 10:35:19;;;;;;;2.00;1.40;;;13.10;99.90;;;;;;7394341;19;20510;-80
2022/12/29 10:37:45;;;;;;;4.47;1.90;;;13.10;99.90;;;;;;7389444;19;20134;-79
2022/12/29 10:40:23;;;;;;;3.42;1.92;;;13.20;99.90;;;;;;7391210;19;20134;-79
2022/12/29 10:42:54;;;;;;;2.42;1.48;;;13.20;99.90;;;;;;7390574;19;20146;-79
2022/12/29 10:45:25;;;;;;;2.70;1.20;;;13.40;99.90;;;;;;7391465;19;20151;-78
2022/12/29 10:48:08;;;;;;;2.28;1.33;;;13.50;99.90;;;;;;7391965;19;20138;-81
2022/12/29 10:50:34;;;;;;;2.20;1.40;;;13.60;99.90;;;;;;7388916;19;20237;-78
2022/12/29 10:53:05;;;;;;;3.22;1.20;;;13.60;99.90;;;;;;7389756;19;20534;-78
2022/12/29 10:55:37;;;;;;;2.05;1.00;;;13.60;99.90;;;;;;7387391;19;20177;-78
2022/12/29 10:58:11;;;;;;;3.25;1.38;;;13.80;99.90;;;;;;7391234;19;20586;-77
2022/12/29 11:00:36;;;;;;;1.55;1.23;;;13.80;99.90;;;;;;7390116;19;20931;-76
2022/12/29 11:03:23;;;;;;;2.03;1.17;;;13.90;99.90;;;;;;7390754;19;20226;-79
2022/12/29 11:06:10;;;;;;;2.47;1.20;;;14.10;99.90;;;;;;7390315;19;20141;-78
2022/12/29 11:08:40;;;;;;;2.70;1.00;;;14.10;99.90;;;;;;7388962;19;20505;-77
2022/12/29 11:11:09;;;;;;;1.85;0.98;;;14.20;99.90;;;;;;7386694;19;20138;-80
2022/12/29 11:13:58;;;;;;;2.58;1.02;;;13.90;99.90;;;;;;7389358;19;20126;-79
2022/12/29 11:16:30;;;;;;;3.78;1.80;;;14.00;99.90;;;;;;7388867;19;20143;-78
2022/12/29 11:18:56;;;;;;;3.65;1.13;;;14.00;99.90;;;;;;7390863;19;20608;-76
2022/12/29 11:21:32;;;;;;;3.75;1.33;;;13.90;99.90;;;;;;7398837;19;20186;-77
2022/12/29 11:24:18;;;;;;;3.60;1.83;;;14.00;99.90;;;;;;7399743;19;20145;-80
2022/12/29 11:26:44;;;;;;;3.00;2.00;;;14.00;99.90;;;;;;7395594;19;20186;-77
2022/12/29 11:29:13;;;;;;;3.00;1.20;;;14.00;99.90;;;;;;7397367;19;20151;-79
2022/12/29 11:31:44;;;;;;;1.45;1.00;;;14.10;99.90;;;;;;7393592;19;20794;-77
2022/12/29 11:34:21;;;;;;;2.47;1.45;;;14.00;99.90;;;;;;7394972;19;20198;-77
2022/12/29 11:36:50;;;;;;;2.78;1.40;;;13.90;99.90;;;;;;7390317;19;20500;-75
2022/12/29 11:39:50;;;;;;;2.08;0.98;;;13.90;99.90;;;;;;7389814;19;21038;-77
2022/12/29 11:42:20;;;;;;;3.17;1.73;;;13.90;99.90;;;;;;7393187;19;20138;-76
2022/12/29 11:44:47;;;;;;;2.33;1.45;;;13.80;99.90;;;;;;7392975;19;20154;-77
2022/12/29 11:47:23;;;;;;;2.13;1.10;;;13.80;99.90;;;;;;7391850;19;20131;-77
2022/12/29 11:49:54;;;;;;;1.23;1.00;;;13.80;99.90;;;;;;7387928;19;20130;-77
2022/12/29 11:52:24;;;;;;;2.45;1.13;;;13.80;99.90;;;;;;7386464;19;20126;-77
2022/12/29 11:54:50;;;;;;;1.75;1.30;;;13.60;99.90;;;;;;7385422;19;20130;-76
2022/12/29 11:57:18;;;;;;;3.90;1.77;;;13.80;99.90;;;;;;7388026;19;20127;-77
2022/12/29 11:59:49;;;;;;;1.60;1.20;;;13.70;99.90;;;;;;7388520;19;20155;-76
2022/12/29 12:02:42;;;;;;;3.38;1.45;;;13.50;99.90;;;;;;7387875;19;20134;-76
2022/12/29 12:05:27;;;;;;;2.05;1.02;;;13.40;99.90;;;;;;7387465;19;20623;-76
2022/12/29 12:08:31;;;;;;;4.22;1.10;;;13.40;99.90;;;;;;7392248;19;20138;-76
2022/12/29 12:11:25;;;;;;;2.15;1.00;;;13.40;99.90;;;;;;7385469;19;20169;-75
2022/12/29 12:13:57;;;;;;;4.65;1.42;;;13.30;99.90;;;;;;7386674;19;20165;-77
2022/12/29 12:16:32;;;;;;;1.20;1.05;;;13.20;99.90;;;;;;7391345;19;20134;-76
2022/12/29 12:19:18;;;;;;;2.78;1.40;;;13.30;99.90;;;;;;7392929;19;20142;-77
2022/12/29 12:21:51;;;;;;;2.65;1.27;;;13.20;99.90;;;;;;7390197;19;20138;-76
2022/12/29 12:24:33;;;;;;;1.30;1.20;;;13.20;99.90;;;;;;7390074;19;20501;-76
2022/12/29 12:27:12;;;;;;;1.83;1.30;;;13.10;99.90;;;;;;7389976;19;20142;-77
2022/12/29 12:29:51;;;;;;;2.47;1.20;;;13.20;99.90;;;;;;7387402;19;20145;-76
2022/12/29 12:32:24;;;;;;;2.38;1.50;;;13.20;99.90;;;;;;7386110;19;20159;-77
2022/12/29 12:34:51;;;;;;;2.17;1.50;;;13.30;99.90;;;;;;7388879;19;20139;-76
2022/12/29 12:37:35;;;;;;;2.00;1.10;;;13.30;99.90;;;;;;7389846;19;20472;-77
2022/12/29 12:40:50;;;;;;;2.42;1.42;;;13.30;99.90;;;;;;7393648;19;20165;-76
2022/12/29 12:43:34;;;;;;;1.33;1.00;;;13.30;99.90;;;;;;7391991;19;20150;-77
2022/12/29 12:46:12;;;;;;;1.27;0.90;;;13.40;99.90;;;;;;7393835;19;20164;-75
2022/12/29 12:49:13;;;;;;;1.45;1.25;;;13.30;99.90;;;;;;7397048;19;20152;-76
2022/12/29 12:51:55;;;;;;;1.65;0.93;;;13.30;99.90;;;;;;7395586;19;20130;-76
2022/12/29 12:54:37;;;;;;;2.55;1.30;;;13.30;99.90;;;;;;7397512;19;20134;-76
2022/12/29 12:57:14;;;;;;;2.72;1.30;;;13.30;99.90;;;;;;7392562;19;20597;-76
2022/12/29 12:59:58;;;;;;;22.52;15.23;;;13.30;99.90;;;;;;7396559;19;20467;-77
2022/12/29 13:03:01;;;;;;;2.60;1.95;;;13.40;99.90;;;;;;7394549;19;20655;-77
2022/12/29 13:05:58;;;;;;;1.40;1.10;;;13.20;99.90;;;;;;7392034;19;20179;-79
2022/12/29 13:08:41;;;;;;;2.38;1.40;;;13.50;99.90;;;;;;7394131;19;20141;-79
2022/12/29 13:11:16;;;;;;;1.48;1.17;;;13.60;99.90;;;;;;7383607;19;20142;-79
2022/12/29 13:14:10;;;;;;;3.05;1.88;;;13.70;99.90;;;;;;7389680;19;20150;-80
2022/12/29 13:17:08;;;;;;;3.33;2.00;;;13.70;99.90;;;;;;7392243;19;20165;-79
2022/12/29 13:20:02;;;;;;;1.67;1.20;;;13.70;99.90;;;;;;7392158;19;20151;-80
2022/12/29 13:22:36;;;;;;;2.63;1.00;;;13.80;99.90;;;;;;7397871;19;20198;-80
2022/12/29 13:25:08;;;;;;;2.40;1.20;;;13.80;99.90;;;;;;7392850;19;20506;-79
2022/12/29 13:27:52;;;;;;;1.23;0.98;;;13.70;99.90;;;;;;7390543;19;20479;-80
2022/12/29 13:30:22;;;;;;;1.63;1.13;;;13.70;99.90;;;;;;7390837;19;21272;-78
2022/12/29 13:33:20;;;;;;;2.60;1.30;;;13.70;99.90;;;;;;7393030;19;20602;-79
2022/12/29 13:36:03;;;;;;;2.45;1.50;;;13.60;99.90;;;;;;7392297;19;20154;-81
2022/12/29 13:38:35;;;;;;;3.33;1.30;;;13.50;99.90;;;;;;7392694;19;20157;-77
2022/12/29 13:41:48;;;;;;;1.83;0.90;;;13.50;99.90;;;;;;7392290;19;20138;-78
2022/12/29 13:44:23;;;;;;;2.65;1.35;;;13.40;99.90;;;;;;7392521;19;20165;-80
2022/12/29 13:46:49;;;;;;;1.88;1.00;;;13.30;99.90;;;;;;7392817;19;20150;-78
2022/12/29 13:49:21;;;;;;;3.08;1.10;;;13.30;99.90;;;;;;7390753;19;20158;-78